sensor_id;sensor_type;location;lat;lon;timestamp;temperature;humidity
67005;HTU21D;53920;51.094;5.902;2023-04-24T00:00:16;11.07;68.86
67005;HTU21D;53920;51.094;5.902;2023-04-24T00:02:44;11.02;69.05
67005;HTU21D;53920;51.094;5.902;2023-04-24T00:05:15;11.02;68.97
67005;HTU21D;53920;51.094;5.902;2023-04-24T00:07:42;10.93;69.38
67005;HTU21D;53920;51.094;5.902;2023-04-24T00:10:08;10.95;69.78
67005;HTU21D;53920;51.094;5.902;2023-04-24T00:12:34;10.97;69.32
67005;HTU21D;53920;51.094;5.902;2023-04-24T00:15:01;10.97;69.47
67005;HTU21D;53920;51.094;5.902;2023-04-24T00:17:27;11.00;69.34
67005;HTU21D;53920;51.094;5.902;2023-04-24T00:19:52;11.03;69.10
67005;HTU21D;53920;51.094;5.902;2023-04-24T00:22:24;10.97;69.30
67005;HTU21D;53920;51.094;5.902;2023-04-24T00:24:50;10.96;69.26
67005;HTU21D;53920;51.094;5.902;2023-04-24T00:27:17;10.96;69.21
67005;HTU21D;53920;51.094;5.902;2023-04-24T00:29:43;10.98;69.10
67005;HTU21D;53920;51.094;5.902;2023-04-24T00:32:09;10.94;69.29
67005;HTU21D;53920;51.094;5.902;2023-04-24T00:34:34;10.90;69.68
67005;HTU21D;53920;51.094;5.902;2023-04-24T00:37:00;10.92;69.58
67005;HTU21D;53920;51.094;5.902;2023-04-24T00:39:26;10.93;69.61
67005;HTU21D;53920;51.094;5.902;2023-04-24T00:41:52;10.88;69.66
67005;HTU21D;53920;51.094;5.902;2023-04-24T00:44:19;10.92;69.65
67005;HTU21D;53920;51.094;5.902;2023-04-24T00:46:46;10.87;69.70
67005;HTU21D;53920;51.094;5.902;2023-04-24T00:49:13;10.82;69.96
67005;HTU21D;53920;51.094;5.902;2023-04-24T00:51:40;10.81;70.08
67005;HTU21D;53920;51.094;5.902;2023-04-24T00:54:06;10.79;70.30
67005;HTU21D;53920;51.094;5.902;2023-04-24T00:56:32;10.81;70.40
67005;HTU21D;53920;51.094;5.902;2023-04-24T00:58:59;10.78;70.39
67005;HTU21D;53920;51.094;5.902;2023-04-24T01:01:25;10.80;70.47
67005;HTU21D;53920;51.094;5.902;2023-04-24T01:03:52;10.82;70.35
67005;HTU21D;53920;51.094;5.902;2023-04-24T01:06:19;10.83;70.45
67005;HTU21D;53920;51.094;5.902;2023-04-24T01:08:47;10.82;70.26
67005;HTU21D;53920;51.094;5.902;2023-04-24T01:11:14;10.81;70.48
67005;HTU21D;53920;51.094;5.902;2023-04-24T01:13:40;10.75;70.32
67005;HTU21D;53920;51.094;5.902;2023-04-24T01:16:06;10.78;70.35
67005;HTU21D;53920;51.094;5.902;2023-04-24T01:18:33;10.74;70.46
67005;HTU21D;53920;51.094;5.902;2023-04-24T01:21:04;10.75;70.61
67005;HTU21D;53920;51.094;5.902;2023-04-24T01:23:30;10.79;70.58
67005;HTU21D;53920;51.094;5.902;2023-04-24T01:25:56;10.75;70.68
67005;HTU21D;53920;51.094;5.902;2023-04-24T01:28:25;10.79;70.59
67005;HTU21D;53920;51.094;5.902;2023-04-24T01:30:52;10.80;70.32
67005;HTU21D;53920;51.094;5.902;2023-04-24T01:33:22;10.75;70.58
67005;HTU21D;53920;51.094;5.902;2023-04-24T01:35:48;10.79;70.73
67005;HTU21D;53920;51.094;5.902;2023-04-24T01:38:14;10.81;70.55
67005;HTU21D;53920;51.094;5.902;2023-04-24T01:40:41;10.82;70.61
67005;HTU21D;53920;51.094;5.902;2023-04-24T01:43:07;10.81;70.61
67005;HTU21D;53920;51.094;5.902;2023-04-24T01:45:33;10.80;70.52
67005;HTU21D;53920;51.094;5.902;2023-04-24T01:48:00;10.79;70.69
67005;HTU21D;53920;51.094;5.902;2023-04-24T01:50:26;10.85;70.36
67005;HTU21D;53920;51.094;5.902;2023-04-24T01:52:51;10.73;70.68
67005;HTU21D;53920;51.094;5.902;2023-04-24T01:55:18;10.74;70.77
67005;HTU21D;53920;51.094;5.902;2023-04-24T01:57:44;10.82;70.72
67005;HTU21D;53920;51.094;5.902;2023-04-24T02:00:11;10.82;70.58
67005;HTU21D;53920;51.094;5.902;2023-04-24T02:02:40;10.77;70.93
67005;HTU21D;53920;51.094;5.902;2023-04-24T02:05:07;10.77;70.91
67005;HTU21D;53920;51.094;5.902;2023-04-24T02:07:35;10.72;70.93
67005;HTU21D;53920;51.094;5.902;2023-04-24T02:10:01;10.73;70.81
67005;HTU21D;53920;51.094;5.902;2023-04-24T02:12:28;10.74;70.86
67005;HTU21D;53920;51.094;5.902;2023-04-24T02:14:53;10.74;70.81
67005;HTU21D;53920;51.094;5.902;2023-04-24T02:17:19;10.78;70.81
67005;HTU21D;53920;51.094;5.902;2023-04-24T02:19:45;10.77;70.77
67005;HTU21D;53920;51.094;5.902;2023-04-24T02:22:12;10.73;70.99
67005;HTU21D;53920;51.094;5.902;2023-04-24T02:24:38;10.72;71.06
67005;HTU21D;53920;51.094;5.902;2023-04-24T02:27:06;10.74;70.80
67005;HTU21D;53920;51.094;5.902;2023-04-24T02:29:33;10.74;70.76
67005;HTU21D;53920;51.094;5.902;2023-04-24T02:31:58;10.75;70.74
67005;HTU21D;53920;51.094;5.902;2023-04-24T02:34:24;10.72;70.84
67005;HTU21D;53920;51.094;5.902;2023-04-24T02:36:50;10.72;70.92
67005;HTU21D;53920;51.094;5.902;2023-04-24T02:39:17;10.79;70.60
67005;HTU21D;53920;51.094;5.902;2023-04-24T02:41:44;10.74;70.71
67005;HTU21D;53920;51.094;5.902;2023-04-24T02:44:10;10.72;70.61
67005;HTU21D;53920;51.094;5.902;2023-04-24T02:46:36;10.71;70.74
67005;HTU21D;53920;51.094;5.902;2023-04-24T02:49:02;10.70;70.98
67005;HTU21D;53920;51.094;5.902;2023-04-24T02:51:29;10.73;70.87
67005;HTU21D;53920;51.094;5.902;2023-04-24T02:53:55;10.73;70.97
67005;HTU21D;53920;51.094;5.902;2023-04-24T02:56:21;10.58;71.77
67005;HTU21D;53920;51.094;5.902;2023-04-24T02:58:47;10.40;72.47
67005;HTU21D;53920;51.094;5.902;2023-04-24T03:01:13;10.37;72.69
67005;HTU21D;53920;51.094;5.902;2023-04-24T03:03:39;10.38;72.74
67005;HTU21D;53920;51.094;5.902;2023-04-24T03:06:05;10.41;72.58
67005;HTU21D;53920;51.094;5.902;2023-04-24T03:08:32;10.41;72.29
67005;HTU21D;53920;51.094;5.902;2023-04-24T03:10:58;10.38;72.36
67005;HTU21D;53920;51.094;5.902;2023-04-24T03:13:23;10.40;72.39
67005;HTU21D;53920;51.094;5.902;2023-04-24T03:15:50;10.39;72.38
67005;HTU21D;53920;51.094;5.902;2023-04-24T03:18:16;10.45;72.28
67005;HTU21D;53920;51.094;5.902;2023-04-24T03:20:42;10.48;72.09
67005;HTU21D;53920;51.094;5.902;2023-04-24T03:23:10;10.48;71.80
67005;HTU21D;53920;51.094;5.902;2023-04-24T03:25:37;10.48;71.66
67005;HTU21D;53920;51.094;5.902;2023-04-24T03:28:03;10.49;71.36
67005;HTU21D;53920;51.094;5.902;2023-04-24T03:30:38;10.50;71.58
67005;HTU21D;53920;51.094;5.902;2023-04-24T03:33:04;10.52;71.35
67005;HTU21D;53920;51.094;5.902;2023-04-24T03:35:35;10.53;71.08
67005;HTU21D;53920;51.094;5.902;2023-04-24T03:38:04;10.51;71.11
67005;HTU21D;53920;51.094;5.902;2023-04-24T03:40:42;10.51;71.13
67005;HTU21D;53920;51.094;5.902;2023-04-24T03:43:22;10.45;71.10
67005;HTU21D;53920;51.094;5.902;2023-04-24T03:45:48;10.42;71.10
67005;HTU21D;53920;51.094;5.902;2023-04-24T03:48:16;10.37;71.37
67005;HTU21D;53920;51.094;5.902;2023-04-24T03:50:43;10.31;71.60
67005;HTU21D;53920;51.094;5.902;2023-04-24T03:53:11;10.25;72.23
67005;HTU21D;53920;51.094;5.902;2023-04-24T03:55:39;10.12;72.70
67005;HTU21D;53920;51.094;5.902;2023-04-24T03:58:05;10.00;73.35
67005;HTU21D;53920;51.094;5.902;2023-04-24T04:00:31;9.83;74.35
67005;HTU21D;53920;51.094;5.902;2023-04-24T04:03:17;9.70;75.28
67005;HTU21D;53920;51.094;5.902;2023-04-24T04:05:43;9.62;75.96
67005;HTU21D;53920;51.094;5.902;2023-04-24T04:08:10;9.60;76.51
67005;HTU21D;53920;51.094;5.902;2023-04-24T04:10:36;9.48;77.17
67005;HTU21D;53920;51.094;5.902;2023-04-24T04:13:04;9.39;78.08
67005;HTU21D;53920;51.094;5.902;2023-04-24T04:15:30;9.35;78.48
67005;HTU21D;53920;51.094;5.902;2023-04-24T04:17:55;9.37;78.40
67005;HTU21D;53920;51.094;5.902;2023-04-24T04:20:22;9.24;79.11
67005;HTU21D;53920;51.094;5.902;2023-04-24T04:22:48;9.21;79.66
67005;HTU21D;53920;51.094;5.902;2023-04-24T04:25:20;9.15;79.80
67005;HTU21D;53920;51.094;5.902;2023-04-24T04:27:46;9.07;80.14
67005;HTU21D;53920;51.094;5.902;2023-04-24T04:30:15;9.08;80.24
67005;HTU21D;53920;51.094;5.902;2023-04-24T04:32:49;9.06;80.67
67005;HTU21D;53920;51.094;5.902;2023-04-24T04:35:15;9.07;80.69
67005;HTU21D;53920;51.094;5.902;2023-04-24T04:37:42;9.10;80.59
67005;HTU21D;53920;51.094;5.902;2023-04-24T04:40:27;9.10;80.54
67005;HTU21D;53920;51.094;5.902;2023-04-24T04:42:59;9.15;80.36
67005;HTU21D;53920;51.094;5.902;2023-04-24T04:45:28;9.20;80.06
67005;HTU21D;53920;51.094;5.902;2023-04-24T04:48:30;9.23;80.04
67005;HTU21D;53920;51.094;5.902;2023-04-24T04:50:59;9.34;79.66
67005;HTU21D;53920;51.094;5.902;2023-04-24T04:53:26;9.31;79.67
67005;HTU21D;53920;51.094;5.902;2023-04-24T04:55:52;9.31;79.91
67005;HTU21D;53920;51.094;5.902;2023-04-24T04:58:19;9.40;79.78
67005;HTU21D;53920;51.094;5.902;2023-04-24T05:00:50;9.45;79.24
67005;HTU21D;53920;51.094;5.902;2023-04-24T05:03:22;9.37;79.23
67005;HTU21D;53920;51.094;5.902;2023-04-24T05:05:55;9.26;80.15
67005;HTU21D;53920;51.094;5.902;2023-04-24T05:08:21;9.20;80.28
67005;HTU21D;53920;51.094;5.902;2023-04-24T05:10:48;9.16;80.65
67005;HTU21D;53920;51.094;5.902;2023-04-24T05:13:13;9.08;81.23
67005;HTU21D;53920;51.094;5.902;2023-04-24T05:15:40;8.95;81.70
67005;HTU21D;53920;51.094;5.902;2023-04-24T05:18:05;8.92;81.91
67005;HTU21D;53920;51.094;5.902;2023-04-24T05:20:32;8.97;81.98
67005;HTU21D;53920;51.094;5.902;2023-04-24T05:22:58;8.85;82.46
67005;HTU21D;53920;51.094;5.902;2023-04-24T05:25:28;8.88;82.44
67005;HTU21D;53920;51.094;5.902;2023-04-24T05:27:58;8.80;82.82
67005;HTU21D;53920;51.094;5.902;2023-04-24T05:30:24;8.78;82.94
67005;HTU21D;53920;51.094;5.902;2023-04-24T05:32:50;8.80;83.00
67005;HTU21D;53920;51.094;5.902;2023-04-24T05:35:16;8.80;83.40
67005;HTU21D;53920;51.094;5.902;2023-04-24T05:37:42;8.88;83.37
67005;HTU21D;53920;51.094;5.902;2023-04-24T05:40:09;8.87;83.41
67005;HTU21D;53920;51.094;5.902;2023-04-24T05:42:35;8.90;83.51
67005;HTU21D;53920;51.094;5.902;2023-04-24T05:45:02;8.90;83.53
67005;HTU21D;53920;51.094;5.902;2023-04-24T05:47:28;8.96;83.60
67005;HTU21D;53920;51.094;5.902;2023-04-24T05:49:54;9.02;83.80
67005;HTU21D;53920;51.094;5.902;2023-04-24T05:52:20;9.11;83.71
67005;HTU21D;53920;51.094;5.902;2023-04-24T05:54:48;9.20;83.50
67005;HTU21D;53920;51.094;5.902;2023-04-24T05:57:19;9.22;83.67
67005;HTU21D;53920;51.094;5.902;2023-04-24T05:59:53;9.23;83.61
67005;HTU21D;53920;51.094;5.902;2023-04-24T06:02:21;9.18;83.67
67005;HTU21D;53920;51.094;5.902;2023-04-24T06:04:47;9.21;83.85
67005;HTU21D;53920;51.094;5.902;2023-04-24T06:07:13;9.20;83.85
67005;HTU21D;53920;51.094;5.902;2023-04-24T06:09:42;9.21;83.81
67005;HTU21D;53920;51.094;5.902;2023-04-24T06:12:08;9.21;83.74
67005;HTU21D;53920;51.094;5.902;2023-04-24T06:14:48;9.14;83.84
67005;HTU21D;53920;51.094;5.902;2023-04-24T06:17:18;9.10;83.84
67005;HTU21D;53920;51.094;5.902;2023-04-24T06:19:45;9.04;83.69
67005;HTU21D;53920;51.094;5.902;2023-04-24T06:22:11;8.98;83.79
67005;HTU21D;53920;51.094;5.902;2023-04-24T06:24:37;9.03;83.73
67005;HTU21D;53920;51.094;5.902;2023-04-24T06:27:03;9.01;83.89
67005;HTU21D;53920;51.094;5.902;2023-04-24T06:29:30;8.98;83.88
67005;HTU21D;53920;51.094;5.902;2023-04-24T06:31:55;8.97;83.81
67005;HTU21D;53920;51.094;5.902;2023-04-24T06:34:21;9.03;84.03
67005;HTU21D;53920;51.094;5.902;2023-04-24T06:36:47;9.06;84.07
67005;HTU21D;53920;51.094;5.902;2023-04-24T06:39:13;9.11;83.92
67005;HTU21D;53920;51.094;5.902;2023-04-24T06:41:39;9.06;84.00
67005;HTU21D;53920;51.094;5.902;2023-04-24T06:44:05;8.97;84.06
67005;HTU21D;53920;51.094;5.902;2023-04-24T06:46:31;8.94;84.09
67005;HTU21D;53920;51.094;5.902;2023-04-24T06:48:57;8.86;83.74
67005;HTU21D;53920;51.094;5.902;2023-04-24T06:51:24;8.74;83.77
67005;HTU21D;53920;51.094;5.902;2023-04-24T06:53:54;8.59;83.69
67005;HTU21D;53920;51.094;5.902;2023-04-24T06:56:22;8.52;83.66
67005;HTU21D;53920;51.094;5.902;2023-04-24T06:58:48;8.47;83.60
67005;HTU21D;53920;51.094;5.902;2023-04-24T07:01:14;8.48;83.50
67005;HTU21D;53920;51.094;5.902;2023-04-24T07:03:40;8.43;83.50
67005;HTU21D;53920;51.094;5.902;2023-04-24T07:06:06;8.41;83.74
67005;HTU21D;53920;51.094;5.902;2023-04-24T07:08:32;8.45;83.74
67005;HTU21D;53920;51.094;5.902;2023-04-24T07:10:59;8.49;83.90
67005;HTU21D;53920;51.094;5.902;2023-04-24T07:13:25;8.60;84.05
67005;HTU21D;53920;51.094;5.902;2023-04-24T07:15:53;8.67;84.07
67005;HTU21D;53920;51.094;5.902;2023-04-24T07:18:20;8.73;83.93
67005;HTU21D;53920;51.094;5.902;2023-04-24T07:20:47;8.73;84.10
67005;HTU21D;53920;51.094;5.902;2023-04-24T07:23:12;8.73;83.94
67005;HTU21D;53920;51.094;5.902;2023-04-24T07:25:39;8.71;84.00
67005;HTU21D;53920;51.094;5.902;2023-04-24T07:28:05;8.64;83.96
67005;HTU21D;53920;51.094;5.902;2023-04-24T07:30:31;8.62;84.19
67005;HTU21D;53920;51.094;5.902;2023-04-24T07:32:59;8.60;84.23
67005;HTU21D;53920;51.094;5.902;2023-04-24T07:35:26;8.51;84.16
67005;HTU21D;53920;51.094;5.902;2023-04-24T07:37:55;8.51;84.18
67005;HTU21D;53920;51.094;5.902;2023-04-24T07:40:22;8.53;84.10
67005;HTU21D;53920;51.094;5.902;2023-04-24T07:42:48;8.57;84.07
67005;HTU21D;53920;51.094;5.902;2023-04-24T07:45:15;8.51;83.93
67005;HTU21D;53920;51.094;5.902;2023-04-24T07:47:41;8.52;83.87
67005;HTU21D;53920;51.094;5.902;2023-04-24T07:50:09;8.49;83.88
67005;HTU21D;53920;51.094;5.902;2023-04-24T07:52:35;8.45;83.65
67005;HTU21D;53920;51.094;5.902;2023-04-24T07:55:02;8.43;83.75
67005;HTU21D;53920;51.094;5.902;2023-04-24T07:57:28;8.50;83.49
67005;HTU21D;53920;51.094;5.902;2023-04-24T07:59:54;8.41;83.46
67005;HTU21D;53920;51.094;5.902;2023-04-24T08:02:21;8.38;83.56
67005;HTU21D;53920;51.094;5.902;2023-04-24T08:04:52;8.42;83.61
67005;HTU21D;53920;51.094;5.902;2023-04-24T08:07:21;8.48;83.77
67005;HTU21D;53920;51.094;5.902;2023-04-24T08:09:47;8.56;83.80
67005;HTU21D;53920;51.094;5.902;2023-04-24T08:12:13;8.60;83.64
67005;HTU21D;53920;51.094;5.902;2023-04-24T08:14:39;8.65;83.65
67005;HTU21D;53920;51.094;5.902;2023-04-24T08:17:05;8.71;83.70
67005;HTU21D;53920;51.094;5.902;2023-04-24T08:19:31;8.77;83.67
67005;HTU21D;53920;51.094;5.902;2023-04-24T08:21:58;8.83;83.67
67005;HTU21D;53920;51.094;5.902;2023-04-24T08:24:24;8.88;83.52
67005;HTU21D;53920;51.094;5.902;2023-04-24T08:26:50;8.92;83.70
67005;HTU21D;53920;51.094;5.902;2023-04-24T08:29:17;9.01;83.55
67005;HTU21D;53920;51.094;5.902;2023-04-24T08:31:42;9.08;83.39
67005;HTU21D;53920;51.094;5.902;2023-04-24T08:34:09;9.14;83.38
67005;HTU21D;53920;51.094;5.902;2023-04-24T08:36:36;9.19;83.23
67005;HTU21D;53920;51.094;5.902;2023-04-24T08:39:02;9.26;83.12
67005;HTU21D;53920;51.094;5.902;2023-04-24T08:41:30;9.35;82.68
67005;HTU21D;53920;51.094;5.902;2023-04-24T08:43:57;9.33;82.75
67005;HTU21D;53920;51.094;5.902;2023-04-24T08:46:24;9.41;82.63
67005;HTU21D;53920;51.094;5.902;2023-04-24T08:48:52;9.55;82.59
67005;HTU21D;53920;51.094;5.902;2023-04-24T08:51:18;9.71;82.29
67005;HTU21D;53920;51.094;5.902;2023-04-24T08:53:46;9.77;81.99
67005;HTU21D;53920;51.094;5.902;2023-04-24T08:56:13;9.83;81.78
67005;HTU21D;53920;51.094;5.902;2023-04-24T08:58:40;9.90;81.49
67005;HTU21D;53920;51.094;5.902;2023-04-24T09:01:07;9.91;81.30
67005;HTU21D;53920;51.094;5.902;2023-04-24T09:03:35;9.86;81.02
67005;HTU21D;53920;51.094;5.902;2023-04-24T09:06:02;9.92;81.01
67005;HTU21D;53920;51.094;5.902;2023-04-24T09:08:29;9.97;80.93
67005;HTU21D;53920;51.094;5.902;2023-04-24T09:10:56;10.12;80.36
67005;HTU21D;53920;51.094;5.902;2023-04-24T09:13:24;10.05;80.17
67005;HTU21D;53920;51.094;5.902;2023-04-24T09:15:51;10.03;79.95
67005;HTU21D;53920;51.094;5.902;2023-04-24T09:18:17;9.88;80.03
67005;HTU21D;53920;51.094;5.902;2023-04-24T09:21:00;9.84;80.27
67005;HTU21D;53920;51.094;5.902;2023-04-24T09:23:31;9.80;80.48
67005;HTU21D;53920;51.094;5.902;2023-04-24T09:26:00;9.88;80.69
67005;HTU21D;53920;51.094;5.902;2023-04-24T09:31:22;10.31;79.81
67005;HTU21D;53920;51.094;5.902;2023-04-24T09:33:57;10.40;79.48
67005;HTU21D;53920;51.094;5.902;2023-04-24T09:36:32;10.49;79.22
67005;HTU21D;53920;51.094;5.902;2023-04-24T09:39:00;10.57;78.73
67005;HTU21D;53920;51.094;5.902;2023-04-24T09:41:27;10.57;78.36
67005;HTU21D;53920;51.094;5.902;2023-04-24T09:43:56;10.74;78.04
67005;HTU21D;53920;51.094;5.902;2023-04-24T09:46:30;10.74;76.85
67005;HTU21D;53920;51.094;5.902;2023-04-24T09:49:08;10.89;76.42
67005;HTU21D;53920;51.094;5.902;2023-04-24T09:51:37;11.12;75.87
67005;HTU21D;53920;51.094;5.902;2023-04-24T09:54:13;11.11;74.95
67005;HTU21D;53920;51.094;5.902;2023-04-24T09:56:43;11.45;74.12
67005;HTU21D;53920;51.094;5.902;2023-04-24T09:59:12;11.69;72.89
67005;HTU21D;53920;51.094;5.902;2023-04-24T10:01:38;11.70;72.54
67005;HTU21D;53920;51.094;5.902;2023-04-24T10:04:21;11.86;71.60
67005;HTU21D;53920;51.094;5.902;2023-04-24T10:06:50;12.16;70.42
67005;HTU21D;53920;51.094;5.902;2023-04-24T10:09:18;12.73;68.99
67005;HTU21D;53920;51.094;5.902;2023-04-24T10:11:47;13.45;66.83
67005;HTU21D;53920;51.094;5.902;2023-04-24T10:14:15;14.05;64.47
67005;HTU21D;53920;51.094;5.902;2023-04-24T10:16:42;15.00;61.09
67005;HTU21D;53920;51.094;5.902;2023-04-24T10:19:10;15.09;59.99
67005;HTU21D;53920;51.094;5.902;2023-04-24T10:21:36;15.40;58.87
67005;HTU21D;53920;51.094;5.902;2023-04-24T10:24:12;16.28;56.92
67005;HTU21D;53920;51.094;5.902;2023-04-24T10:26:40;17.14;53.94
67005;HTU21D;53920;51.094;5.902;2023-04-24T10:29:06;17.34;53.00
67005;HTU21D;53920;51.094;5.902;2023-04-24T10:31:37;16.75;53.94
67005;HTU21D;53920;51.094;5.902;2023-04-24T10:34:05;15.55;56.92
67005;HTU21D;53920;51.094;5.902;2023-04-24T10:36:33;14.32;59.31
67005;HTU21D;53920;51.094;5.902;2023-04-24T10:39:04;13.70;60.97
67005;HTU21D;53920;51.094;5.902;2023-04-24T10:41:32;13.53;61.39
67005;HTU21D;53920;51.094;5.902;2023-04-24T10:46:31;13.18;61.92
67005;HTU21D;53920;51.094;5.902;2023-04-24T10:48:57;13.40;61.92
67005;HTU21D;53920;51.094;5.902;2023-04-24T10:51:44;13.94;60.94
67005;HTU21D;53920;51.094;5.902;2023-04-24T10:54:26;14.29;60.26
67005;HTU21D;53920;51.094;5.902;2023-04-24T10:57:25;14.23;60.35
67005;HTU21D;53920;51.094;5.902;2023-04-24T10:59:39;13.86;61.19
67005;HTU21D;53920;51.094;5.902;2023-04-24T11:02:08;13.47;62.16
67005;HTU21D;53920;51.094;5.902;2023-04-24T11:04:34;13.05;63.47
67005;HTU21D;53920;51.094;5.902;2023-04-24T11:07:03;12.80;64.23
67005;HTU21D;53920;51.094;5.902;2023-04-24T11:09:31;12.69;64.85
67005;HTU21D;53920;51.094;5.902;2023-04-24T11:12:06;12.65;65.08
67005;HTU21D;53920;51.094;5.902;2023-04-24T11:15:02;12.65;64.71
67005;HTU21D;53920;51.094;5.902;2023-04-24T11:17:34;12.57;64.95
67005;HTU21D;53920;51.094;5.902;2023-04-24T11:20:08;12.43;65.28
67005;HTU21D;53920;51.094;5.902;2023-04-24T11:22:36;12.44;66.05
67005;HTU21D;53920;51.094;5.902;2023-04-24T11:25:04;12.50;65.78
67005;HTU21D;53920;51.094;5.902;2023-04-24T11:27:38;12.36;65.06
67005;HTU21D;53920;51.094;5.902;2023-04-24T11:30:06;12.25;64.41
67005;HTU21D;53920;51.094;5.902;2023-04-24T11:34:59;12.26;62.60
67005;HTU21D;53920;51.094;5.902;2023-04-24T11:37:28;12.30;62.11
67005;HTU21D;53920;51.094;5.902;2023-04-24T11:39:58;12.41;60.99
67005;HTU21D;53920;51.094;5.902;2023-04-24T11:42:24;13.12;59.41
67005;HTU21D;53920;51.094;5.902;2023-04-24T11:44:53;14.58;55.45
67005;HTU21D;53920;51.094;5.902;2023-04-24T11:47:19;14.89;54.07
67005;HTU21D;53920;51.094;5.902;2023-04-24T11:49:46;15.23;53.33
67005;HTU21D;53920;51.094;5.902;2023-04-24T11:52:15;15.06;52.92
67005;HTU21D;53920;51.094;5.902;2023-04-24T11:54:50;14.74;54.13
67005;HTU21D;53920;51.094;5.902;2023-04-24T11:57:16;14.47;54.04
67005;HTU21D;53920;51.094;5.902;2023-04-24T11:59:44;14.05;54.29
67005;HTU21D;53920;51.094;5.902;2023-04-24T12:02:23;13.68;54.69
67005;HTU21D;53920;51.094;5.902;2023-04-24T12:04:49;13.43;55.40
67005;HTU21D;53920;51.094;5.902;2023-04-24T12:07:15;13.22;56.13
67005;HTU21D;53920;51.094;5.902;2023-04-24T12:12:07;12.79;57.60
67005;HTU21D;53920;51.094;5.902;2023-04-24T12:14:52;12.89;57.26
67005;HTU21D;53920;51.094;5.902;2023-04-24T12:17:27;13.79;55.48
67005;HTU21D;53920;51.094;5.902;2023-04-24T12:19:58;14.13;53.85
67005;HTU21D;53920;51.094;5.902;2023-04-24T12:22:25;14.00;54.01
67005;HTU21D;53920;51.094;5.902;2023-04-24T12:24:57;13.79;54.65
67005;HTU21D;53920;51.094;5.902;2023-04-24T12:27:24;13.56;55.04
67005;HTU21D;53920;51.094;5.902;2023-04-24T12:29:58;13.97;54.75
67005;HTU21D;53920;51.094;5.902;2023-04-24T12:32:24;14.59;53.04
67005;HTU21D;53920;51.094;5.902;2023-04-24T12:34:54;14.45;52.70
67005;HTU21D;53920;51.094;5.902;2023-04-24T12:37:23;14.27;53.26
67005;HTU21D;53920;51.094;5.902;2023-04-24T12:40:07;14.17;53.96
67005;HTU21D;53920;51.094;5.902;2023-04-24T12:42:34;14.14;53.12
67005;HTU21D;53920;51.094;5.902;2023-04-24T12:45:06;13.93;53.10
67005;HTU21D;53920;51.094;5.902;2023-04-24T12:47:33;13.83;53.56
67005;HTU21D;53920;51.094;5.902;2023-04-24T12:50:00;13.75;53.17
67005;HTU21D;53920;51.094;5.902;2023-04-24T12:52:28;13.80;53.23
67005;HTU21D;53920;51.094;5.902;2023-04-24T12:54:58;14.07;52.72
67005;HTU21D;53920;51.094;5.902;2023-04-24T12:57:26;14.08;52.63
67005;HTU21D;53920;51.094;5.902;2023-04-24T12:59:56;14.01;52.69
67005;HTU21D;53920;51.094;5.902;2023-04-24T13:02:23;14.12;52.23
67005;HTU21D;53920;51.094;5.902;2023-04-24T13:04:49;14.37;51.28
67005;HTU21D;53920;51.094;5.902;2023-04-24T13:07:16;14.38;51.59
67005;HTU21D;53920;51.094;5.902;2023-04-24T13:09:43;14.26;51.38
67005;HTU21D;53920;51.094;5.902;2023-04-24T13:12:10;14.11;51.75
67005;HTU21D;53920;51.094;5.902;2023-04-24T13:14:37;14.06;52.25
67005;HTU21D;53920;51.094;5.902;2023-04-24T13:17:03;14.19;52.40
67005;HTU21D;53920;51.094;5.902;2023-04-24T13:19:29;14.39;52.04
67005;HTU21D;53920;51.094;5.902;2023-04-24T13:21:56;14.81;51.04
67005;HTU21D;53920;51.094;5.902;2023-04-24T13:24:23;14.85;50.63
67005;HTU21D;53920;51.094;5.902;2023-04-24T13:26:52;14.78;50.93
67005;HTU21D;53920;51.094;5.902;2023-04-24T13:29:18;14.63;51.53
67005;HTU21D;53920;51.094;5.902;2023-04-24T13:31:50;14.56;51.89
67005;HTU21D;53920;51.094;5.902;2023-04-24T13:34:17;14.36;52.18
67005;HTU21D;53920;51.094;5.902;2023-04-24T13:36:43;14.65;52.39
67005;HTU21D;53920;51.094;5.902;2023-04-24T13:39:09;15.75;49.49
67005;HTU21D;53920;51.094;5.902;2023-04-24T13:41:36;16.13;48.02
67005;HTU21D;53920;51.094;5.902;2023-04-24T13:44:03;16.14;47.44
67005;HTU21D;53920;51.094;5.902;2023-04-24T13:46:29;16.24;47.25
67005;HTU21D;53920;51.094;5.902;2023-04-24T13:48:54;16.45;46.68
67005;HTU21D;53920;51.094;5.902;2023-04-24T13:51:21;16.63;45.29
67005;HTU21D;53920;51.094;5.902;2023-04-24T13:53:46;16.32;44.99
67005;HTU21D;53920;51.094;5.902;2023-04-24T13:56:12;15.95;45.89
67005;HTU21D;53920;51.094;5.902;2023-04-24T13:58:39;15.69;46.57
67005;HTU21D;53920;51.094;5.902;2023-04-24T14:01:05;15.77;46.69
67005;HTU21D;53920;51.094;5.902;2023-04-24T14:03:33;16.08;46.12
67005;HTU21D;53920;51.094;5.902;2023-04-24T14:05:59;16.14;45.18
67005;HTU21D;53920;51.094;5.902;2023-04-24T14:08:25;16.15;44.74
67005;HTU21D;53920;51.094;5.902;2023-04-24T14:10:51;16.40;44.22
67005;HTU21D;53920;51.094;5.902;2023-04-24T14:13:17;16.61;43.59
67005;HTU21D;53920;51.094;5.902;2023-04-24T14:15:43;17.46;43.02
67005;HTU21D;53920;51.094;5.902;2023-04-24T14:18:09;18.37;41.68
67005;HTU21D;53920;51.094;5.902;2023-04-24T14:20:35;18.68;40.36
67005;HTU21D;53920;51.094;5.902;2023-04-24T14:23:01;18.61;39.67
67005;HTU21D;53920;51.094;5.902;2023-04-24T14:25:27;18.43;39.77
67005;HTU21D;53920;51.094;5.902;2023-04-24T14:27:53;18.24;40.29
67005;HTU21D;53920;51.094;5.902;2023-04-24T14:30:19;18.33;40.36
67005;HTU21D;53920;51.094;5.902;2023-04-24T14:32:45;18.56;39.22
67005;HTU21D;53920;51.094;5.902;2023-04-24T14:35:11;18.18;39.98
67005;HTU21D;53920;51.094;5.902;2023-04-24T14:37:36;17.60;41.07
67005;HTU21D;53920;51.094;5.902;2023-04-24T14:40:03;17.25;41.78
67005;HTU21D;53920;51.094;5.902;2023-04-24T14:42:30;17.11;41.78
67005;HTU21D;53920;51.094;5.902;2023-04-24T14:44:56;16.91;42.24
67005;HTU21D;53920;51.094;5.902;2023-04-24T14:47:23;17.05;41.78
67005;HTU21D;53920;51.094;5.902;2023-04-24T14:49:49;17.25;41.29
67005;HTU21D;53920;51.094;5.902;2023-04-24T14:52:15;16.77;40.92
67005;HTU21D;53920;51.094;5.902;2023-04-24T14:54:42;16.44;42.10
67005;HTU21D;53920;51.094;5.902;2023-04-24T14:57:08;16.79;42.04
67005;HTU21D;53920;51.094;5.902;2023-04-24T14:59:34;17.18;41.04
67005;HTU21D;53920;51.094;5.902;2023-04-24T15:02:00;16.76;40.83
67005;HTU21D;53920;51.094;5.902;2023-04-24T15:04:28;16.28;41.10
67005;HTU21D;53920;51.094;5.902;2023-04-24T15:06:55;15.97;41.73
67005;HTU21D;53920;51.094;5.902;2023-04-24T15:09:23;15.95;41.85
67005;HTU21D;53920;51.094;5.902;2023-04-24T15:11:50;16.17;41.85
67005;HTU21D;53920;51.094;5.902;2023-04-24T15:14:17;16.32;41.43
67005;HTU21D;53920;51.094;5.902;2023-04-24T15:16:43;16.45;41.38
67005;HTU21D;53920;51.094;5.902;2023-04-24T15:19:09;16.61;41.49
67005;HTU21D;53920;51.094;5.902;2023-04-24T15:21:36;16.60;41.22
67005;HTU21D;53920;51.094;5.902;2023-04-24T15:24:04;16.58;41.24
67005;HTU21D;53920;51.094;5.902;2023-04-24T15:26:30;16.42;41.44
67005;HTU21D;53920;51.094;5.902;2023-04-24T15:28:56;16.33;42.87
67005;HTU21D;53920;51.094;5.902;2023-04-24T15:31:22;16.39;43.73
67005;HTU21D;53920;51.094;5.902;2023-04-24T15:33:49;16.47;44.22